sensor_id;sensor_type;location;lat;lon;timestamp;pressure;altitude;pressure_sealevel;temperature;humidity
84995;BME280;75312;47.528;19.016;2024-01-30T00:00:32;101243.59;;;1.21;81.98
84995;BME280;75312;47.528;19.016;2024-01-30T00:01:07;101246.09;;;1.24;82.00
84995;BME280;75312;47.528;19.016;2024-01-30T00:01:38;101237.50;;;1.24;82.00
84995;BME280;75312;47.528;19.016;2024-01-30T00:02:08;101239.22;;;1.23;82.13
84995;BME280;75312;47.528;19.016;2024-01-30T00:02:39;101245.28;;;1.22;82.24
84995;BME280;75312;47.528;19.016;2024-01-30T00:03:09;101247.09;;;1.19;81.87
84995;BME280;75312;47.528;19.016;2024-01-30T00:03:40;101241.94;;;1.19;81.93
84995;BME280;75312;47.528;19.016;2024-01-30T00:04:11;101240.13;;;1.22;82.06
84995;BME280;75312;47.528;19.016;2024-01-30T00:04:41;101240.06;;;1.24;82.08
84995;BME280;75312;47.528;19.016;2024-01-30T00:05:12;101232.25;;;1.28;82.16
84995;BME280;75312;47.528;19.016;2024-01-30T00:05:45;101247.69;;;1.30;82.06
84995;BME280;75312;47.528;19.016;2024-01-30T00:06:19;101243.38;;;1.30;81.73
84995;BME280;75312;47.528;19.016;2024-01-30T00:06:53;101237.28;;;1.33;81.67
84995;BME280;75312;47.528;19.016;2024-01-30T00:07:24;101244.13;;;1.34;81.63
84995;BME280;75312;47.528;19.016;2024-01-30T00:07:57;101240.69;;;1.35;81.65
84995;BME280;75312;47.528;19.016;2024-01-30T00:08:27;101237.22;;;1.34;81.66
84995;BME280;75312;47.528;19.016;2024-01-30T00:08:58;101242.34;;;1.37;81.74
84995;BME280;75312;47.528;19.016;2024-01-30T00:09:29;101241.47;;;1.38;81.66
84995;BME280;75312;47.528;19.016;2024-01-30T00:09:59;101241.53;;;1.35;81.18
84995;BME280;75312;47.528;19.016;2024-01-30T00:10:32;101244.13;;;1.34;81.43
84995;BME280;75312;47.528;19.016;2024-01-30T00:11:05;101245.84;;;1.35;81.30
84995;BME280;75312;47.528;19.016;2024-01-30T00:11:40;101243.22;;;1.36;81.41
84995;BME280;75312;47.528;19.016;2024-01-30T00:12:11;101241.56;;;1.34;82.05
84995;BME280;75312;47.528;19.016;2024-01-30T00:12:44;101244.09;;;1.37;81.61
84995;BME280;75312;47.528;19.016;2024-01-30T00:13:14;101241.50;;;1.37;81.29
84995;BME280;75312;47.528;19.016;2024-01-30T00:13:48;101242.34;;;1.37;81.25
84995;BME280;75312;47.528;19.016;2024-01-30T00:14:18;101245.81;;;1.36;81.23
84995;BME280;75312;47.528;19.016;2024-01-30T00:14:49;101243.16;;;1.39;81.22
84995;BME280;75312;47.528;19.016;2024-01-30T00:15:19;101244.88;;;1.39;81.24
84995;BME280;75312;47.528;19.016;2024-01-30T00:15:50;101239.69;;;1.40;81.20
84995;BME280;75312;47.528;19.016;2024-01-30T00:16:21;101238.91;;;1.37;81.41
84995;BME280;75312;47.528;19.016;2024-01-30T00:16:52;101238.13;;;1.35;81.41
84995;BME280;75312;47.528;19.016;2024-01-30T00:17:23;101245.81;;;1.36;81.38
84995;BME280;75312;47.528;19.016;2024-01-30T00:17:55;101236.38;;;1.35;81.38
84995;BME280;75312;47.528;19.016;2024-01-30T00:18:29;101244.00;;;1.40;81.22
84995;BME280;75312;47.528;19.016;2024-01-30T00:18:59;101236.28;;;1.38;81.01
84995;BME280;75312;47.528;19.016;2024-01-30T00:19:32;101245.72;;;1.39;81.13
84995;BME280;75312;47.528;19.016;2024-01-30T00:24:07;101243.44;;;1.27;81.31
84995;BME280;75312;47.528;19.016;2024-01-30T00:24:38;101242.56;;;1.28;81.18
84995;BME280;75312;47.528;19.016;2024-01-30T00:25:13;101243.41;;;1.29;81.35
84995;BME280;75312;47.528;19.016;2024-01-30T00:25:44;101250.34;;;1.25;81.53
84995;BME280;75312;47.528;19.016;2024-01-30T00:26:14;101250.34;;;1.25;81.10
84995;BME280;75312;47.528;19.016;2024-01-30T00:26:49;101247.00;;;1.22;81.38
84995;BME280;75312;47.528;19.016;2024-01-30T00:30:20;101246.41;;;1.10;81.88
84995;BME280;75312;47.528;19.016;2024-01-30T00:30:53;101250.78;;;1.07;82.01
84995;BME280;75312;47.528;19.016;2024-01-30T00:31:26;101253.34;;;1.07;82.07
84995;BME280;75312;47.528;19.016;2024-01-30T00:31:59;101257.63;;;1.08;81.75
84995;BME280;75312;47.528;19.016;2024-01-30T00:32:30;101251.66;;;1.06;81.89
84995;BME280;75312;47.528;19.016;2024-01-30T00:33:01;101259.53;;;1.01;82.11
84995;BME280;75312;47.528;19.016;2024-01-30T00:33:31;101262.09;;;1.01;82.21
84995;BME280;75312;47.528;19.016;2024-01-30T00:34:02;101254.44;;;0.97;82.07
84995;BME280;75312;47.528;19.016;2024-01-30T00:34:32;101253.56;;;0.98;82.20
84995;BME280;75312;47.528;19.016;2024-01-30T00:35:05;101253.56;;;0.98;82.25
84995;BME280;75312;47.528;19.016;2024-01-30T00:35:36;101255.41;;;0.93;82.32
84995;BME280;75312;47.528;19.016;2024-01-30T00:36:09;101258.00;;;0.93;82.61
84995;BME280;75312;47.528;19.016;2024-01-30T00:36:42;101255.50;;;0.88;82.62
84995;BME280;75312;47.528;19.016;2024-01-30T00:37:12;101253.00;;;0.85;82.80
84995;BME280;75312;47.528;19.016;2024-01-30T00:37:45;101256.38;;;0.87;82.70
84995;BME280;75312;47.528;19.016;2024-01-30T00:38:16;101261.47;;;0.90;82.74
84995;BME280;75312;47.528;19.016;2024-01-30T00:38:46;101257.13;;;0.92;82.62
84995;BME280;75312;47.528;19.016;2024-01-30T00:39:17;101257.13;;;0.92;82.75
84995;BME280;75312;47.528;19.016;2024-01-30T00:39:52;101252.84;;;0.93;82.95
84995;BME280;75312;47.528;19.016;2024-01-30T00:40:22;101253.59;;;0.96;82.63
84995;BME280;75312;47.528;19.016;2024-01-30T00:40:53;101260.41;;;0.99;82.87
84995;BME280;75312;47.528;19.016;2024-01-30T00:41:24;101262.97;;;1.00;82.81
84995;BME280;75312;47.528;19.016;2024-01-30T00:41:54;101257.81;;;1.00;82.43
84995;BME280;75312;47.528;19.016;2024-01-30T00:42:25;101254.41;;;0.98;82.51
84995;BME280;75312;47.528;19.016;2024-01-30T00:42:55;101256.09;;;0.99;82.35
84995;BME280;75312;47.528;19.016;2024-01-30T00:43:26;101259.53;;;1.00;82.64
84995;BME280;75312;47.528;19.016;2024-01-30T00:43:56;101261.31;;;0.98;82.59
84995;BME280;75312;47.528;19.016;2024-01-30T00:44:27;101262.16;;;0.98;82.48
84995;BME280;75312;47.528;19.016;2024-01-30T00:45:00;101259.53;;;1.00;82.36
84995;BME280;75312;47.528;19.016;2024-01-30T00:45:31;101254.38;;;1.01;82.61
84995;BME280;75312;47.528;19.016;2024-01-30T00:46:04;101262.13;;;1.00;82.41
84995;BME280;75312;47.528;19.016;2024-01-30T00:46:34;101254.41;;;0.98;82.46
84995;BME280;75312;47.528;19.016;2024-01-30T00:47:05;101258.72;;;0.98;82.57
84995;BME280;75312;47.528;19.016;2024-01-30T00:47:36;101256.22;;;0.95;82.61
84995;BME280;75312;47.528;19.016;2024-01-30T00:52:11;101257.81;;;1.00;82.54
84995;BME280;75312;47.528;19.016;2024-01-30T00:52:42;101257.81;;;1.00;82.62
84995;BME280;75312;47.528;19.016;2024-01-30T00:53:15;101258.72;;;0.98;82.14
84995;BME280;75312;47.528;19.016;2024-01-30T00:53:45;101251.03;;;0.96;82.31
84995;BME280;75312;47.528;19.016;2024-01-30T00:54:16;101262.22;;;0.95;82.41
84995;BME280;75312;47.528;19.016;2024-01-30T00:54:47;101261.31;;;0.98;82.62
84995;BME280;75312;47.528;19.016;2024-01-30T00:55:20;101257.00;;;0.98;82.75
84995;BME280;75312;47.528;19.016;2024-01-30T00:55:58;101254.44;;;0.97;82.56
84995;BME280;75312;47.528;19.016;2024-01-30T00:56:31;101252.72;;;0.97;82.58
84995;BME280;75312;47.528;19.016;2024-01-30T00:57:02;101248.41;;;0.98;82.79
84995;BME280;75312;47.528;19.016;2024-01-30T00:57:33;101254.44;;;0.97;82.88
84995;BME280;75312;47.528;19.016;2024-01-30T00:58:06;101251.06;;;0.95;82.76
84995;BME280;75312;47.528;19.016;2024-01-30T00:58:37;101250.19;;;0.96;82.94
84995;BME280;75312;47.528;19.016;2024-01-30T01:02:41;101249.25;;;0.98;82.75
84995;BME280;75312;47.528;19.016;2024-01-30T01:03:11;101244.97;;;0.97;82.76
84995;BME280;75312;47.528;19.016;2024-01-30T01:03:44;101238.16;;;0.95;82.90
84995;BME280;75312;47.528;19.016;2024-01-30T01:04:17;101246.78;;;0.94;82.83
84995;BME280;75312;47.528;19.016;2024-01-30T01:04:51;101248.47;;;0.95;82.91
84995;BME280;75312;47.528;19.016;2024-01-30T01:05:22;101245.00;;;0.96;82.92
84995;BME280;75312;47.528;19.016;2024-01-30T01:05:52;101242.34;;;0.99;82.83
84995;BME280;75312;47.528;19.016;2024-01-30T01:06:23;101247.56;;;0.97;82.84
84995;BME280;75312;47.528;19.016;2024-01-30T01:06:56;101244.94;;;0.99;82.86
84995;BME280;75312;47.528;19.016;2024-01-30T01:07:26;101246.63;;;1.00;82.91
84995;BME280;75312;47.528;19.016;2024-01-30T01:08:02;101247.47;;;1.00;82.64
84995;BME280;75312;47.528;19.016;2024-01-30T01:08:35;101248.38;;;0.99;82.63
84995;BME280;75312;47.528;19.016;2024-01-30T01:09:07;101242.31;;;1.00;82.49
84995;BME280;75312;47.528;19.016;2024-01-30T01:13:10;101248.44;;;0.96;82.90
84995;BME280;75312;47.528;19.016;2024-01-30T01:13:41;101242.50;;;0.93;82.77
84995;BME280;75312;47.528;19.016;2024-01-30T01:14:11;101245.09;;;0.93;82.95
84995;BME280;75312;47.528;19.016;2024-01-30T01:14:42;101244.22;;;0.92;82.85
84995;BME280;75312;47.528;19.016;2024-01-30T01:15:18;101238.19;;;0.93;82.88
84995;BME280;75312;47.528;19.016;2024-01-30T01:15:48;101241.63;;;0.92;82.85
84995;BME280;75312;47.528;19.016;2024-01-30T01:16:19;101244.22;;;0.92;82.82
84995;BME280;75312;47.528;19.016;2024-01-30T01:16:49;101239.16;;;0.88;82.78
84995;BME280;75312;47.528;19.016;2024-01-30T01:17:22;101243.38;;;0.92;83.00
84995;BME280;75312;47.528;19.016;2024-01-30T01:17:53;101240.81;;;0.90;83.16
84995;BME280;75312;47.528;19.016;2024-01-30T01:18:23;101244.22;;;0.92;83.18
84995;BME280;75312;47.528;19.016;2024-01-30T01:18:55;101242.47;;;0.94;82.93
84995;BME280;75312;47.528;19.016;2024-01-30T01:19:28;101242.47;;;0.94;82.97
84995;BME280;75312;47.528;19.016;2024-01-30T01:19:59;101242.53;;;0.91;82.93
84995;BME280;75312;47.528;19.016;2024-01-30T01:20:29;101242.53;;;0.91;82.99
84995;BME280;75312;47.528;19.016;2024-01-30T01:21:03;101237.34;;;0.93;82.92
84995;BME280;75312;47.528;19.016;2024-01-30T01:21:36;101239.03;;;0.94;83.07
84995;BME280;75312;47.528;19.016;2024-01-30T01:22:06;101242.44;;;0.96;83.04
84995;BME280;75312;47.528;19.016;2024-01-30T01:22:42;101239.84;;;0.96;82.77
84995;BME280;75312;47.528;19.016;2024-01-30T01:23:13;101238.13;;;0.96;82.76
84995;BME280;75312;47.528;19.016;2024-01-30T01:23:44;101243.25;;;0.98;83.22
84995;BME280;75312;47.528;19.016;2024-01-30T01:24:14;101233.00;;;0.95;82.81
84995;BME280;75312;47.528;19.016;2024-01-30T01:28:50;101233.84;;;0.95;83.14
84995;BME280;75312;47.528;19.016;2024-01-30T01:29:23;101239.78;;;0.99;83.16
84995;BME280;75312;47.528;19.016;2024-01-30T01:29:58;101227.72;;;0.99;83.29
84995;BME280;75312;47.528;19.016;2024-01-30T01:30:29;101234.56;;;1.00;82.95
84995;BME280;75312;47.528;19.016;2024-01-30T01:31:02;101229.41;;;1.02;82.92
84995;BME280;75312;47.528;19.016;2024-01-30T01:31:40;101238.00;;;1.02;82.79
84995;BME280;75312;47.528;19.016;2024-01-30T01:35:38;101226.03;;;0.98;82.62
84995;BME280;75312;47.528;19.016;2024-01-30T01:36:12;101228.59;;;0.98;82.71
84995;BME280;75312;47.528;19.016;2024-01-30T01:36:43;101228.56;;;1.00;82.82
84995;BME280;75312;47.528;19.016;2024-01-30T01:37:16;101221.69;;;1.00;82.68
84995;BME280;75312;47.528;19.016;2024-01-30T01:37:46;101226.78;;;1.03;82.78
84995;BME280;75312;47.528;19.016;2024-01-30T01:38:17;101224.22;;;1.03;82.70
84995;BME280;75312;47.528;19.016;2024-01-30T01:38:48;101225.09;;;1.01;82.86
84995;BME280;75312;47.528;19.016;2024-01-30T01:39:18;101225.13;;;0.99;82.67
84995;BME280;75312;47.528;19.016;2024-01-30T01:39:49;101226.84;;;1.00;82.84
84995;BME280;75312;47.528;19.016;2024-01-30T01:40:24;101225.13;;;0.99;82.72
84995;BME280;75312;47.528;19.016;2024-01-30T01:40:55;101225.97;;;1.01;82.98
84995;BME280;75312;47.528;19.016;2024-01-30T01:41:31;101233.78;;;0.98;82.81
84995;BME280;75312;47.528;19.016;2024-01-30T01:42:02;101226.84;;;1.00;82.78
84995;BME280;75312;47.528;19.016;2024-01-30T01:42:33;101232.78;;;1.04;82.90
84995;BME280;75312;47.528;19.016;2024-01-30T01:43:04;101226.78;;;1.03;82.93
84995;BME280;75312;47.528;19.016;2024-01-30T01:43:35;101226.78;;;1.03;82.85
84995;BME280;75312;47.528;19.016;2024-01-30T01:44:09;101231.09;;;1.03;82.85
84995;BME280;75312;47.528;19.016;2024-01-30T01:44:40;101232.00;;;1.02;82.84
84995;BME280;75312;47.528;19.016;2024-01-30T01:45:15;101231.09;;;1.03;82.86
84995;BME280;75312;47.528;19.016;2024-01-30T01:45:46;101224.28;;;0.99;82.85
84995;BME280;75312;47.528;19.016;2024-01-30T01:50:26;101229.47;;;0.99;82.81
84995;BME280;75312;47.528;19.016;2024-01-30T01:50:57;101222.56;;;0.99;82.60
84995;BME280;75312;47.528;19.016;2024-01-30T01:51:29;101226.00;;;1.00;82.67
84995;BME280;75312;47.528;19.016;2024-01-30T01:52:01;101226.88;;;0.99;82.80
84995;BME280;75312;47.528;19.016;2024-01-30T01:52:32;101221.69;;;1.00;82.89
84995;BME280;75312;47.528;19.016;2024-01-30T01:53:03;101230.31;;;0.99;82.93
84995;BME280;75312;47.528;19.016;2024-01-30T01:53:35;101228.56;;;1.00;82.87
84995;BME280;75312;47.528;19.016;2024-01-30T01:54:06;101220.81;;;1.00;82.89
84995;BME280;75312;47.528;19.016;2024-01-30T01:54:38;101227.72;;;0.99;82.84
84995;BME280;75312;47.528;19.016;2024-01-30T01:55:08;101226.84;;;1.00;82.65
84995;BME280;75312;47.528;19.016;2024-01-30T01:55:39;101221.75;;;0.97;82.65
84995;BME280;75312;47.528;19.016;2024-01-30T01:56:10;101225.22;;;0.96;82.56
84995;BME280;75312;47.528;19.016;2024-01-30T01:56:46;101220.13;;;0.93;82.96
84995;BME280;75312;47.528;19.016;2024-01-30T01:57:19;101227.88;;;0.93;82.86
84995;BME280;75312;47.528;19.016;2024-01-30T01:57:53;101221.00;;;0.94;83.01
84995;BME280;75312;47.528;19.016;2024-01-30T01:58:27;101223.56;;;0.92;83.02
84995;BME280;75312;47.528;19.016;2024-01-30T01:59:05;101226.16;;;0.94;82.80
84995;BME280;75312;47.528;19.016;2024-01-30T01:59:38;101221.00;;;0.92;82.93
84995;BME280;75312;47.528;19.016;2024-01-30T02:00:10;101224.41;;;0.94;82.81
84995;BME280;75312;47.528;19.016;2024-01-30T02:00:42;101223.56;;;0.94;82.87
84995;BME280;75312;47.528;19.016;2024-01-30T02:01:16;101223.56;;;0.94;82.94
84995;BME280;75312;47.528;19.016;2024-01-30T02:01:49;101221.03;;;0.91;83.09
84995;BME280;75312;47.528;19.016;2024-01-30T02:02:23;101221.88;;;0.91;83.18
84995;BME280;75312;47.528;19.016;2024-01-30T02:03:02;101226.16;;;0.92;83.04
84995;BME280;75312;47.528;19.016;2024-01-30T02:03:34;101221.00;;;0.94;83.14
84995;BME280;75312;47.528;19.016;2024-01-30T02:04:07;101229.66;;;0.90;83.14
84995;BME280;75312;47.528;19.016;2024-01-30T02:04:40;101231.41;;;0.89;83.43
84995;BME280;75312;47.528;19.016;2024-01-30T02:05:14;101232.25;;;0.90;83.41
84995;BME280;75312;47.528;19.016;2024-01-30T02:05:48;101223.72;;;0.86;83.39
84995;BME280;75312;47.528;19.016;2024-01-30T02:06:22;101230.63;;;0.86;83.27
84995;BME280;75312;47.528;19.016;2024-01-30T02:06:55;101222.13;;;0.80;83.66
84995;BME280;75312;47.528;19.016;2024-01-30T02:07:27;101227.22;;;0.83;83.50
84995;BME280;75312;47.528;19.016;2024-01-30T02:08:01;101230.63;;;0.86;83.50
84995;BME280;75312;47.528;19.016;2024-01-30T02:08:37;101227.19;;;0.85;83.38
84995;BME280;75312;47.528;19.016;2024-01-30T02:09:10;101227.16;;;0.87;82.97
84995;BME280;75312;47.528;19.016;2024-01-30T02:09:43;101227.22;;;0.83;82.92
84995;BME280;75312;47.528;19.016;2024-01-30T02:10:16;101225.47;;;0.86;83.45
84995;BME280;75312;47.528;19.016;2024-01-30T02:10:48;101219.41;;;0.87;83.33
84995;BME280;75312;47.528;19.016;2024-01-30T02:11:19;101224.56;;;0.87;83.38
84995;BME280;75312;47.528;19.016;2024-01-30T02:11:50;101225.47;;;0.84;83.33
84995;BME280;75312;47.528;19.016;2024-01-30T02:12:23;101222.88;;;0.86;83.14
84995;BME280;75312;47.528;19.016;2024-01-30T02:12:57;101217.72;;;0.86;83.06
84995;BME280;75312;47.528;19.016;2024-01-30T02:13:28;101221.13;;;0.88;83.12
84995;BME280;75312;47.528;19.016;2024-01-30T02:14:02;101219.38;;;0.88;83.09
84995;BME280;75312;47.528;19.016;2024-01-30T02:14:44;101221.13;;;0.88;83.11
84995;BME280;75312;47.528;19.016;2024-01-30T02:15:18;101220.28;;;0.87;83.00
84995;BME280;75312;47.528;19.016;2024-01-30T02:15:51;101216.84;;;0.87;83.30
84995;BME280;75312;47.528;19.016;2024-01-30T02:16:23;101211.69;;;0.87;83.24
84995;BME280;75312;47.528;19.016;2024-01-30T02:16:56;101212.44;;;0.90;83.32
84995;BME280;75312;47.528;19.016;2024-01-30T02:17:27;101218.50;;;0.89;83.29
84995;BME280;75312;47.528;19.016;2024-01-30T02:18:02;101223.69;;;0.88;83.36
84995;BME280;75312;47.528;19.016;2024-01-30T02:18:33;101216.81;;;0.88;83.43
84995;BME280;75312;47.528;19.016;2024-01-30T02:19:12;101217.59;;;0.90;83.12
84995;BME280;75312;47.528;19.016;2024-01-30T02:19:42;101209.03;;;0.90;83.23
84995;BME280;75312;47.528;19.016;2024-01-30T02:20:13;101214.25;;;0.87;83.36
84995;BME280;75312;47.528;19.016;2024-01-30T02:20:44;101217.66;;;0.89;83.44
84995;BME280;75312;47.528;19.016;2024-01-30T02:21:22;101213.41;;;0.86;83.25
84995;BME280;75312;47.528;19.016;2024-01-30T02:21:53;101214.31;;;0.83;83.66
84995;BME280;75312;47.528;19.016;2024-01-30T02:22:27;101218.63;;;0.83;83.41
84995;BME280;75312;47.528;19.016;2024-01-30T02:22:58;101210.88;;;0.84;83.69
84995;BME280;75312;47.528;19.016;2024-01-30T02:23:33;101219.50;;;0.82;83.53
84995;BME280;75312;47.528;19.016;2024-01-30T02:24:06;101212.63;;;0.82;83.26
84995;BME280;75312;47.528;19.016;2024-01-30T02:24:37;101210.91;;;0.81;83.48
84995;BME280;75312;47.528;19.016;2024-01-30T02:25:10;101218.66;;;0.81;83.42
84995;BME280;75312;47.528;19.016;2024-01-30T02:25:43;101214.47;;;0.77;83.42
84995;BME280;75312;47.528;19.016;2024-01-30T02:26:18;101218.72;;;0.78;83.58
84995;BME280;75312;47.528;19.016;2024-01-30T02:26:49;101221.31;;;0.78;83.42
84995;BME280;75312;47.528;19.016;2024-01-30T02:27:22;101213.63;;;0.77;83.41
84995;BME280;75312;47.528;19.016;2024-01-30T02:27:55;101217.94;;;0.76;83.45
84995;BME280;75312;47.528;19.016;2024-01-30T02:28:26;101217.94;;;0.75;83.47
84995;BME280;75312;47.528;19.016;2024-01-30T02:28:57;101214.50;;;0.74;83.62
84995;BME280;75312;47.528;19.016;2024-01-30T02:29:28;101220.50;;;0.75;83.52
84995;BME280;75312;47.528;19.016;2024-01-30T02:29:59;101214.50;;;0.74;83.52
84995;BME280;75312;47.528;19.016;2024-01-30T02:30:29;101212.78;;;0.75;83.90
84995;BME280;75312;47.528;19.016;2024-01-30T02:31:00;101210.19;;;0.75;83.89
84995;BME280;75312;47.528;19.016;2024-01-30T02:31:30;101213.66;;;0.74;83.74
84995;BME280;75312;47.528;19.016;2024-01-30T02:32:02;101213.63;;;0.77;83.70
84995;BME280;75312;47.528;19.016;2024-01-30T02:32:32;101215.31;;;0.78;83.60
84995;BME280;75312;47.528;19.016;2024-01-30T02:33:03;101221.34;;;0.75;83.58
84995;BME280;75312;47.528;19.016;2024-01-30T02:33:33;101216.31;;;0.71;83.54
84995;BME280;75312;47.528;19.016;2024-01-30T02:34:04;101220.63;;;0.70;83.44
84995;BME280;75312;47.528;19.016;2024-01-30T02:34:37;101215.47;;;0.70;83.43
84995;BME280;75312;47.528;19.016;2024-01-30T02:35:08;101224.94;;;0.70;83.55
84995;BME280;75312;47.528;19.016;2024-01-30T02:35:41;101217.13;;;0.73;83.54
84995;BME280;75312;47.528;19.016;2024-01-30T02:36:12;101212.84;;;0.72;83.66
84995;BME280;75312;47.528;19.016;2024-01-30T02:36:48;101223.16;;;0.72;83.42
84995;BME280;75312;47.528;19.016;2024-01-30T02:37:21;101214.66;;;0.68;83.50
84995;BME280;75312;47.528;19.016;2024-01-30T02:37:52;101215.56;;;0.66;83.53
84995;BME280;75312;47.528;19.016;2024-01-30T02:38:23;101219.03;;;0.65;83.63
84995;BME280;75312;47.528;19.016;2024-01-30T02:38:54;101218.16;;;0.64;83.77
84995;BME280;75312;47.528;19.016;2024-01-30T02:39:27;101220.72;;;0.66;83.66
84995;BME280;75312;47.528;19.016;2024-01-30T02:39:57;101223.31;;;0.64;83.68
84995;BME280;75312;47.528;19.016;2024-01-30T02:40:30;101225.91;;;0.64;83.64
84995;BME280;75312;47.528;19.016;2024-01-30T02:41:01;101218.22;;;0.63;83.69
84995;BME280;75312;47.528;19.016;2024-01-30T02:41:34;101219.91;;;0.64;83.87
84995;BME280;75312;47.528;19.016;2024-01-30T02:42:06;101222.53;;;0.62;83.90
84995;BME280;75312;47.528;19.016;2024-01-30T02:42:37;101216.56;;;0.60;83.80
84995;BME280;75312;47.528;19.016;2024-01-30T02:43:08;101224.28;;;0.60;84.09
84995;BME280;75312;47.528;19.016;2024-01-30T02:43:41;101219.13;;;0.60;83.83
84995;BME280;75312;47.528;19.016;2024-01-30T02:44:14;101225.13;;;0.61;83.83
84995;BME280;75312;47.528;19.016;2024-01-30T02:44:45;101222.53;;;0.62;83.95
84995;BME280;75312;47.528;19.016;2024-01-30T02:45:15;101224.22;;;0.63;83.79
84995;BME280;75312;47.528;19.016;2024-01-30T02:45:46;101220.88;;;0.60;83.87
84995;BME280;75312;47.528;19.016;2024-01-30T02:46:17;101226.88;;;0.60;83.77
84995;BME280;75312;47.528;19.016;2024-01-30T02:49:52;101223.59;;;0.52;84.40
84995;BME280;75312;47.528;19.016;2024-01-30T02:50:22;101227.84;;;0.54;84.47
84995;BME280;75312;47.528;19.016;2024-01-30T02:50:55;101222.75;;;0.51;84.33
84995;BME280;75312;47.528;19.016;2024-01-30T02:51:32;101214.94;;;0.54;84.43
84995;BME280;75312;47.528;19.016;2024-01-30T02:52:05;101218.38;;;0.55;84.16
84995;BME280;75312;47.528;19.016;2024-01-30T02:52:38;101220.13;;;0.53;84.17
84995;BME280;75312;47.528;19.016;2024-01-30T02:53:09;101224.41;;;0.54;84.19
84995;BME280;75312;47.528;19.016;2024-01-30T02:53:42;101223.59;;;0.52;84.31
84995;BME280;75312;47.528;19.016;2024-01-30T02:54:12;101215.91;;;0.49;84.10
84995;BME280;75312;47.528;19.016;2024-01-30T02:54:43;101217.75;;;0.44;84.27
84995;BME280;75312;47.528;19.016;2024-01-30T02:55:14;101218.63;;;0.41;84.77
84995;BME280;75312;47.528;19.016;2024-01-30T02:55:47;101216.91;;;0.42;84.61
84995;BME280;75312;47.528;19.016;2024-01-30T02:56:20;101214.31;;;0.43;84.62
84995;BME280;75312;47.528;19.016;2024-01-30T02:56:51;101217.66;;;0.47;84.78
84995;BME280;75312;47.528;19.016;2024-01-30T02:57:24;101214.25;;;0.46;84.49
84995;BME280;75312;47.528;19.016;2024-01-30T02:57:54;101212.56;;;0.45;84.67
84995;BME280;75312;47.528;19.016;2024-01-30T02:58:27;101211.66;;;0.46;84.30
84995;BME280;75312;47.528;19.016;2024-01-30T02:59:00;101212.56;;;0.45;84.28
84995;BME280;75312;47.528;19.016;2024-01-30T02:59:35;101210.84;;;0.44;84.57
84995;BME280;75312;47.528;19.016;2024-01-30T03:00:07;101219.44;;;0.45;84.56
84995;BME280;75312;47.528;19.016;2024-01-30T03:00:39;101222.88;;;0.45;84.51
84995;BME280;75312;47.528;19.016;2024-01-30T03:01:12;101210.81;;;0.46;84.58
84995;BME280;75312;47.528;19.016;2024-01-30T03:01:48;101215.03;;;0.50;84.47
84995;BME280;75312;47.528;19.016;2024-01-30T03:02:19;101214.16;;;0.51;84.25
84995;BME280;75312;47.528;19.016;2024-01-30T03:02:50;101215.91;;;0.49;84.37
84995;BME280;75312;47.528;19.016;2024-01-30T03:03:20;101215.06;;;0.48;84.58
84995;BME280;75312;47.528;19.016;2024-01-30T03:03:51;101219.38;;;0.48;84.35
84995;BME280;75312;47.528;19.016;2024-01-30T03:04:26;101215.03;;;0.50;84.25
84995;BME280;75312;47.528;19.016;2024-01-30T03:04:59;101212.44;;;0.51;84.29
84995;BME280;75312;47.528;19.016;2024-01-30T03:05:32;101214.13;;;0.52;84.16
84995;BME280;75312;47.528;19.016;2024-01-30T03:06:05;101215.81;;;0.53;84.14
84995;BME280;75312;47.528;19.016;2024-01-30T03:06:38;101216.66;;;0.54;84.04
84995;BME280;75312;47.528;19.016;2024-01-30T03:07:11;101210.78;;;0.47;84.06
84995;BME280;75312;47.528;19.016;2024-01-30T03:07:47;101220.19;;;0.50;84.18
84995;BME280;75312;47.528;19.016;2024-01-30T03:08:17;101221.03;;;0.50;83.95
84995;BME280;75312;47.528;19.016;2024-01-30T03:08:50;101212.44;;;0.51;84.18
84995;BME280;75312;47.528;19.016;2024-01-30T03:09:20;101219.28;;;0.52;84.24
84995;BME280;75312;47.528;19.016;2024-01-30T03:09:51;101211.56;;;0.52;84.34
84995;BME280;75312;47.528;19.016;2024-01-30T03:10:25;101210.72;;;0.52;84.67
84995;BME280;75312;47.528;19.016;2024-01-30T03:10:55;101214.97;;;0.53;84.58
84995;BME280;75312;47.528;19.016;2024-01-30T03:11:28;101223.59;;;0.52;84.53
84995;BME280;75312;47.528;19.016;2024-01-30T03:12:01;101218.44;;;0.50;84.46
84995;BME280;75312;47.528;19.016;2024-01-30T03:12:32;101215.03;;;0.50;84.67
84995;BME280;75312;47.528;19.016;2024-01-30T03:13:06;101215.06;;;0.48;84.54
84995;BME280;75312;47.528;19.016;2024-01-30T03:13:38;101216.81;;;0.46;84.57
84995;BME280;75312;47.528;19.016;2024-01-30T03:14:11;101218.53;;;0.47;84.34
84995;BME280;75312;47.528;19.016;2024-01-30T03:14:42;101221.91;;;0.51;84.87
84995;BME280;75312;47.528;19.016;2024-01-30T03:15:15;101218.53;;;0.47;85.00
84995;BME280;75312;47.528;19.016;2024-01-30T03:15:46;101225.41;;;0.47;84.81
84995;BME280;75312;47.528;19.016;2024-01-30T03:16:19;101217.63;;;0.48;84.63
84995;BME280;75312;47.528;19.016;2024-01-30T03:16:50;101220.25;;;0.47;84.94
84995;BME280;75312;47.528;19.016;2024-01-30T03:17:23;101215.97;;;0.46;84.80
84995;BME280;75312;47.528;19.016;2024-01-30T03:17:54;101221.13;;;0.46;84.68
84995;BME280;75312;47.528;19.016;2024-01-30T03:18:27;101218.56;;;0.46;84.83
84995;BME280;75312;47.528;19.016;2024-01-30T03:19:00;101226.22;;;0.49;84.62
84995;BME280;75312;47.528;19.016;2024-01-30T03:19:32;101221.94;;;0.48;84.30
84995;BME280;75312;47.528;19.016;2024-01-30T03:20:06;101223.63;;;0.49;84.32
84995;BME280;75312;47.528;19.016;2024-01-30T03:20:39;101223.72;;;0.46;84.44
84995;BME280;75312;47.528;19.016;2024-01-30T03:21:12;101226.31;;;0.44;84.45